Time;durP1;ratioP1;P1;durP2;ratioP2;P2;SDS_P1;SDS_P2;PMS_P1;PMS_P2;Temp;Humidity;BMP_temperature;BMP_pressure;BME280_temperature;BME280_humidity;BME280_pressure;Samples;Min_cycle;Max_cycle;Signal;HPM_P1;HPM_P2
2021/04/14 00:01:18;;;;;;;24.20;11.07;;;;;;;1.36;100.00;103180.00;5220592;28;20496;-70
2021/04/14 00:03:49;;;;;;;23.77;10.00;;;;;;;1.34;100.00;103179.16;5220939;28;20029;-70
2021/04/14 00:06:19;;;;;;;24.42;11.05;;;;;;;1.25;100.00;103175.03;5221088;28;20082;-70
2021/04/14 00:08:49;;;;;;;23.23;10.95;;;;;;;1.16;100.00;103181.50;5222922;28;20112;-70
2021/04/14 00:11:20;;;;;;;23.45;11.82;;;;;;;1.05;100.00;103175.66;5224681;28;20020;-70
2021/04/14 00:13:51;;;;;;;30.48;11.45;;;;;;;1.02;100.00;103181.06;5224893;28;20029;-70
2021/04/14 00:16:24;;;;;;;23.55;11.70;;;;;;;1.03;100.00;103174.84;5224723;28;20029;-70
2021/04/14 00:18:54;;;;;;;21.60;11.55;;;;;;;1.01;100.00;103171.41;5224413;28;20028;-70
2021/04/14 00:21:25;;;;;;;22.77;12.10;;;;;;;1.03;100.00;103183.66;5223786;28;20477;-70
2021/04/14 00:23:56;;;;;;;23.65;12.57;;;;;;;1.06;100.00;103174.78;5224647;28;20029;-70
2021/04/14 00:26:27;;;;;;;23.80;12.15;;;;;;;1.08;100.00;103182.66;5225006;28;20111;-70
2021/04/14 00:28:57;;;;;;;21.35;10.45;;;;;;;1.07;100.00;103181.78;5224274;28;20060;-70
2021/04/14 00:31:35;;;;;;;24.52;10.88;;;;;;;1.02;100.00;103183.69;5223941;28;20021;-70
2021/04/14 00:34:16;;;;;;;23.35;10.65;;;;;;;0.99;100.00;103179.38;5211404;28;20075;-70
2021/04/14 00:36:48;;;;;;;25.20;11.70;;;;;;;1.00;100.00;103180.22;5212516;28;20103;-69
2021/04/14 00:39:23;;;;;;;19.25;10.20;;;;;;;1.05;100.00;103180.94;5223757;28;20052;-70
2021/04/14 00:41:54;;;;;;;19.08;10.00;;;;;;;1.03;100.00;103180.13;5224069;28;20021;-70
2021/04/14 00:44:25;;;;;;;22.77;11.07;;;;;;;0.96;100.00;103170.69;5224244;28;20032;-70
2021/04/14 00:46:55;;;;;;;21.77;11.55;;;;;;;0.91;100.00;103173.47;5224676;28;20029;-70
2021/04/14 00:49:27;;;;;;;22.77;11.98;;;;;;;0.88;100.00;103168.25;5224061;28;20082;-70
2021/04/14 00:51:58;;;;;;;24.27;11.40;;;;;;;0.87;100.00;103166.53;5224820;28;20028;-70
2021/04/14 00:54:29;;;;;;;28.45;12.38;;;;;;;0.86;100.00;103169.25;5223682;28;20389;-70
2021/04/14 00:56:59;;;;;;;21.52;11.20;;;;;;;0.90;100.00;103173.50;5224172;28;20032;-70
2021/04/14 00:59:30;;;;;;;22.15;10.45;;;;;;;0.83;100.00;103164.91;5223608;28;20036;-70
2021/04/14 01:02:00;;;;;;;25.08;11.52;;;;;;;0.76;100.00;103160.72;5224733;28;20091;-69
2021/04/14 01:04:33;;;;;;;23.48;10.75;;;;;;;0.74;100.00;103158.09;5225206;28;20033;-69
2021/04/14 01:07:14;;;;;;;27.95;11.73;;;;;;;0.79;100.00;103155.31;5224742;28;20488;-69
2021/04/14 01:09:44;;;;;;;22.40;11.63;;;;;;;0.80;100.00;103159.69;5224740;28;20029;-69
2021/04/14 01:12:15;;;;;;;23.25;12.48;;;;;;;0.81;100.00;103160.59;5224940;28;20048;-69
2021/04/14 01:14:46;;;;;;;24.88;12.60;;;;;;;0.83;100.00;103171.97;5224686;28;20116;-69
2021/04/14 01:17:16;;;;;;;28.13;12.05;;;;;;;0.83;100.00;103159.59;5224461;28;20388;-69
2021/04/14 01:19:47;;;;;;;25.98;12.77;;;;;;;0.88;100.00;103160.34;5224299;28;20099;-69
2021/04/14 01:22:18;;;;;;;24.98;12.38;;;;;;;0.91;100.00;103160.25;5224272;28;20025;-70
2021/04/14 01:25:08;;;;;;;21.73;10.93;;;;;;;0.90;100.00;103162.91;5222013;28;20111;-70
2021/04/14 01:27:41;;;;;;;16.85;9.70;;;;;;;0.85;100.00;103154.25;5223475;28;20025;-69
2021/04/14 01:30:20;;;;;;;21.25;10.63;;;;;;;0.78;100.00;103158.88;5223223;28;20025;-70
2021/04/14 01:32:51;;;;;;;22.38;11.02;;;;;;;0.74;100.00;103155.47;5224368;28;20393;-69
2021/04/14 01:35:24;;;;;;;25.42;12.25;;;;;;;0.75;100.00;103151.03;5224201;28;20021;-68
2021/04/14 01:37:56;;;;;;;23.92;10.77;;;;;;;0.74;100.00;103147.53;5224085;28;20059;-69
2021/04/14 01:40:28;;;;;;;19.98;10.07;;;;;;;0.72;100.00;103149.38;5223993;28;20032;-69
2021/04/14 01:42:59;;;;;;;22.98;10.88;;;;;;;0.73;100.00;103145.81;5223839;28;20032;-69
2021/04/14 01:45:34;;;;;;;21.45;11.82;;;;;;;0.73;100.00;103155.50;5224099;28;20485;-69
2021/04/14 01:48:06;;;;;;;;;;;;;;;0.72;100.00;103148.50;5224677;28;20024;-69
2021/04/14 01:50:37;;;;;;;24.08;11.98;;;;;;;0.73;100.00;103148.44;5222869;28;19912;-69
2021/04/14 01:53:11;;;;;;;22.08;11.52;;;;;;;0.72;100.00;103146.72;5224314;28;20029;-70
2021/04/14 01:55:42;;;;;;;30.02;13.20;;;;;;;0.73;100.00;103139.66;5224187;28;20044;-70
2021/04/14 01:58:14;;;;;;;24.70;12.68;;;;;;;0.74;100.00;103141.38;5223863;28;20063;-69
2021/04/14 02:00:53;;;;;;;27.35;13.07;;;;;;;0.72;100.00;103141.44;5223267;28;20047;-69
2021/04/14 02:03:30;;;;;;;26.50;13.43;;;;;;;0.72;100.00;103143.22;5223353;28;20029;-69
2021/04/14 02:06:02;;;;;;;30.40;13.70;;;;;;;0.71;100.00;103137.09;5223819;28;20485;-69
2021/04/14 02:08:33;;;;;;;26.73;12.10;;;;;;;0.70;100.00;103145.03;5221564;28;20044;-70
2021/04/14 02:11:06;;;;;;;22.33;11.20;;;;;;;0.67;100.00;103145.13;5219700;28;20389;-69
2021/04/14 02:13:39;;;;;;;22.45;11.13;;;;;;;0.64;100.00;103143.44;5222725;28;20558;-69
2021/04/14 02:16:14;;;;;;;18.60;10.25;;;;;;;0.58;100.00;103137.50;5223639;28;20100;-69
2021/04/14 02:18:45;;;;;;;23.77;11.82;;;;;;;0.49;100.00;103136.84;5223068;28;20029;-69
2021/04/14 02:21:17;;;;;;;25.15;13.02;;;;;;;0.48;100.00;103134.25;5222394;28;20551;-70
2021/04/14 02:23:49;;;;;;;21.33;11.52;;;;;;;0.49;100.00;103130.69;5222959;28;20017;-70
2021/04/14 02:26:22;;;;;;;28.90;12.27;;;;;;;0.46;100.00;103129.03;5217472;28;20025;-69
2021/04/14 02:28:53;;;;;;;24.08;11.60;;;;;;;0.45;100.00;103129.03;5219245;28;20060;-69
2021/04/14 02:31:32;;;;;;;26.38;12.48;;;;;;;0.43;100.00;103121.19;5222600;28;20021;-70
2021/04/14 02:34:07;;;;;;;27.60;13.82;;;;;;;0.43;100.00;103120.31;5223336;28;20409;-69
2021/04/14 02:36:39;;;;;;;20.70;11.63;;;;;;;0.44;100.00;103122.91;5222822;28;20021;-69
2021/04/14 02:39:11;;;;;;;27.98;11.80;;;;;;;0.40;100.00;103120.41;5222702;28;20013;-69
2021/04/14 02:41:44;;;;;;;23.27;11.50;;;;;;;0.30;100.00;103121.56;5222859;28;20075;-69
2021/04/14 02:44:14;;;;;;;24.25;12.55;;;;;;;0.20;100.00;103131.53;5223322;28;20025;-69
2021/04/14 02:46:45;;;;;;;29.83;11.82;;;;;;;0.19;100.00;103133.31;5222705;28;20495;-69
2021/04/14 02:49:15;;;;;;;26.33;12.10;;;;;;;0.18;100.00;103131.59;5222035;28;20037;-69
2021/04/14 02:51:46;;;;;;;30.42;14.10;;;;;;;0.18;100.00;103128.94;5222906;28;20109;-69
2021/04/14 02:54:17;;;;;;;30.65;13.68;;;;;;;0.16;100.00;103128.13;5222876;28;20029;-70
2021/04/14 02:56:48;;;;;;;24.30;13.88;;;;;;;0.17;100.00;103129.84;5222825;28;20031;-69
2021/04/14 02:59:18;;;;;;;27.83;12.88;;;;;;;0.17;100.00;103129.84;5222016;28;20025;-69
2021/04/14 03:01:49;;;;;;;25.35;12.55;;;;;;;0.17;100.00;103124.59;5222660;28;20128;-69
2021/04/14 03:04:19;;;;;;;24.80;12.23;;;;;;;0.20;100.00;103128.91;5222844;28;20027;-69
2021/04/14 03:06:49;;;;;;;28.48;12.80;;;;;;;0.17;100.00;103126.34;5222951;28;20070;-69
2021/04/14 03:09:20;;;;;;;24.88;11.52;;;;;;;0.19;100.00;103124.53;5222201;28;20063;-69
2021/04/14 03:11:50;;;;;;;22.77;12.05;;;;;;;0.19;100.00;103121.88;5222302;28;20021;-69
2021/04/14 03:14:21;;;;;;;24.33;11.93;;;;;;;0.24;100.00;103122.63;5222440;28;20021;-70
2021/04/14 03:16:52;;;;;;;24.10;12.27;;;;;;;0.31;100.00;103115.41;5222997;28;20064;-68
2021/04/14 03:19:22;;;;;;;23.10;12.45;;;;;;;0.33;100.00;103113.56;5222144;28;20025;-70
2021/04/14 03:21:53;;;;;;;24.63;12.05;;;;;;;0.34;100.00;103110.88;5222268;28;20178;-69
2021/04/14 03:24:23;;;;;;;24.25;12.18;;;;;;;0.36;100.00;103114.38;5221895;28;20477;-69
2021/04/14 03:26:54;;;;;;;23.13;11.77;;;;;;;0.37;100.00;103108.16;5222563;28;20025;-69
2021/04/14 03:29:24;;;;;;;23.40;11.88;;;;;;;0.41;100.00;103108.94;5217585;28;20033;-70
2021/04/14 03:31:55;;;;;;;22.70;11.38;;;;;;;0.40;100.00;103107.19;5222504;28;20092;-69
2021/04/14 03:34:25;;;;;;;29.63;12.52;;;;;;;0.42;100.00;103108.03;5222752;28;20051;-70
2021/04/14 03:36:56;;;;;;;21.20;11.77;;;;;;;0.42;100.00;103111.53;5221789;28;20465;-69
2021/04/14 03:39:26;;;;;;;22.20;11.68;;;;;;;0.42;100.00;103108.03;5221979;28;20432;-70
2021/04/14 03:41:57;;;;;;;27.00;12.80;;;;;;;0.43;100.00;103107.13;5222293;28;20033;-69
2021/04/14 03:44:33;;;;;;;26.35;11.95;;;;;;;0.43;100.00;103101.84;5226291;28;20498;-69
2021/04/14 03:47:04;;;;;;;31.38;12.75;;;;;;;0.43;100.00;103101.84;5226071;28;20029;-69
2021/04/14 03:49:34;;;;;;;22.00;11.68;;;;;;;0.41;100.00;103101.03;5225320;28;20036;-69
2021/04/14 03:52:05;;;;;;;31.35;13.68;;;;;;;0.37;100.00;103100.25;5226478;28;20017;-69
2021/04/14 03:54:35;;;;;;;32.95;14.10;;;;;;;0.37;100.00;103099.38;5226688;28;20434;-69
2021/04/14 03:57:06;;;;;;;25.70;11.82;;;;;;;0.38;100.00;103093.19;5226682;28;20025;-69
2021/04/14 03:59:38;;;;;;;22.30;12.68;;;;;;;0.38;100.00;103094.03;5226189;28;20484;-70
2021/04/14 04:02:08;;;;;;;27.23;12.75;;;;;;;0.41;100.00;103086.03;5225966;28;20028;-69
2021/04/14 04:04:39;;;;;;;27.40;12.35;;;;;;;0.44;100.00;103091.22;5225848;28;20397;-69
2021/04/14 04:07:10;;;;;;;24.77;12.55;;;;;;;0.45;100.00;103092.06;5226278;28;20028;-70
2021/04/14 04:09:40;;;;;;;27.48;13.55;;;;;;;0.45;100.00;103095.59;5225736;28;20025;-69
2021/04/14 04:12:11;;;;;;;27.52;12.90;;;;;;;0.50;100.00;103091.06;5225970;28;20016;-69
2021/04/14 04:14:49;;;;;;;25.15;13.75;;;;;;;0.48;100.00;103089.34;5225626;28;20028;-70
2021/04/14 04:17:21;;;;;;;26.73;13.95;;;;;;;0.44;100.00;103090.34;5225802;28;20102;-70
2021/04/14 04:19:52;;;;;;;23.25;12.57;;;;;;;0.42;100.00;103090.41;5225673;28;20382;-69
2021/04/14 04:22:22;;;;;;;28.50;13.25;;;;;;;0.43;100.00;103086.84;5225306;28;20024;-70
2021/04/14 04:24:52;;;;;;;27.70;13.77;;;;;;;0.46;100.00;103088.53;5225361;28;20065;-69
2021/04/14 04:27:23;;;;;;;29.17;13.57;;;;;;;0.48;100.00;103078.78;5217275;28;20023;-69
2021/04/14 04:29:53;;;;;;;26.65;12.57;;;;;;;0.50;100.00;103083.13;5225482;28;20044;-69
2021/04/14 04:32:24;;;;;;;27.88;12.40;;;;;;;0.52;100.00;103078.66;5225534;28;20021;-69
2021/04/14 04:34:54;;;;;;;24.92;13.02;;;;;;;0.56;100.00;103082.06;5225831;28;20381;-69
2021/04/14 04:37:25;;;;;;;28.17;14.48;;;;;;;0.59;100.00;103084.59;5224966;28;20017;-70
2021/04/14 04:39:55;;;;;;;29.17;13.73;;;;;;;0.62;100.00;103073.94;5225462;28;20060;-69
2021/04/14 04:42:26;;;;;;;36.85;15.57;;;;;;;0.67;100.00;103076.44;5222381;28;20032;-69
2021/04/14 04:44:57;;;;;;;29.92;14.27;;;;;;;0.70;100.00;103081.63;5225257;28;20333;-70
2021/04/14 04:47:28;;;;;;;30.88;14.70;;;;;;;0.72;100.00;103080.69;5225576;28;20029;-70
2021/04/14 04:49:58;;;;;;;32.97;14.75;;;;;;;0.78;100.00;103093.69;5224076;28;20035;-70
2021/04/14 04:52:29;;;;;;;33.70;14.10;;;;;;;0.76;100.00;103089.38;5225309;28;20025;-70
2021/04/14 04:54:59;;;;;;;32.22;13.55;;;;;;;0.72;100.00;103087.75;5224492;28;20025;-70
2021/04/14 04:57:30;;;;;;;26.52;13.55;;;;;;;0.66;100.00;103093.22;5225367;28;20024;-70
2021/04/14 05:00:00;;;;;;;31.30;12.85;;;;;;;0.66;100.00;103099.38;5224783;28;20025;-72
2021/04/14 05:02:31;;;;;;;29.90;15.35;;;;;;;0.66;100.00;103098.50;5206713;28;20033;-69
2021/04/14 05:05:01;;;;;;;28.40;13.88;;;;;;;0.67;100.00;103098.44;5225072;28;20044;-69
2021/04/14 05:07:32;;;;;;;28.77;14.40;;;;;;;0.74;100.00;103097.34;5225184;28;20433;-69
2021/04/14 05:10:04;;;;;;;27.55;13.57;;;;;;;0.81;100.00;103099.81;5224340;28;20496;-69
2021/04/14 05:12:34;;;;;;;33.75;13.98;;;;;;;0.90;100.00;103103.00;5224699;28;20547;-69
2021/04/14 05:15:06;;;;;;;27.95;13.00;;;;;;;0.95;100.00;103109.00;5224410;28;20024;-69
2021/04/14 05:17:37;;;;;;;25.58;12.68;;;;;;;1.01;100.00;103097.38;5224439;28;20037;-69
2021/04/14 05:20:08;;;;;;;28.52;12.25;;;;;;;1.01;100.00;103105.31;5224243;28;20029;-70
2021/04/14 05:22:38;;;;;;;24.33;13.27;;;;;;;0.98;100.00;103108.91;5224004;28;20068;-69
2021/04/14 05:25:09;;;;;;;27.05;12.38;;;;;;;1.05;100.00;103104.28;5224261;28;20048;-69
2021/04/14 05:27:41;;;;;;;25.70;13.38;;;;;;;1.24;100.00;103108.06;5224365;28;20587;-69
2021/04/14 05:30:13;;;;;;;22.27;12.30;;;;;;;1.30;100.00;103107.00;5220091;28;20350;-69
2021/04/14 05:32:44;;;;;;;27.95;12.13;;;;;;;1.37;100.00;103111.16;5206779;28;20049;-69
2021/04/14 05:35:15;;;;;;;24.80;13.25;;;;;;;1.47;100.00;103104.66;5224813;28;20064;-69
2021/04/14 05:37:45;;;;;;;27.02;12.57;;;;;;;1.78;100.00;103107.09;5224295;28;20032;-70
2021/04/14 05:40:16;;;;;;;25.30;12.07;;;;;;;2.06;100.00;103106.97;5223822;28;20055;-69
2021/04/14 05:42:47;;;;;;;24.83;11.82;;;;;;;2.03;100.00;103106.22;5222216;28;20028;-69
2021/04/14 05:45:21;;;;;;;31.33;13.85;;;;;;;1.95;100.00;103116.22;5224059;28;20046;-69
2021/04/14 05:47:52;;;;;;;29.87;13.43;;;;;;;1.91;100.00;103119.88;5224100;28;20055;-68
2021/04/14 05:50:25;;;;;;;34.33;14.60;;;;;;;1.92;100.00;103116.34;5223195;28;20033;-70
2021/04/14 05:52:55;;;;;;;27.70;13.82;;;;;;;2.00;100.00;103124.84;5224136;28;20511;-70
2021/04/14 05:55:26;;;;;;;31.73;15.73;;;;;;;1.92;100.00;103126.91;5206595;28;20575;-70
2021/04/14 05:57:56;;;;;;;33.22;14.88;;;;;;;1.94;100.00;103133.00;5223729;28;20495;-69
2021/04/14 06:00:27;;;;;;;29.50;16.08;;;;;;;2.02;100.00;103125.66;5223174;28;20032;-70
2021/04/14 06:02:58;;;;;;;31.75;14.88;;;;;;;2.01;100.00;103135.41;5223504;28;20025;-69
2021/04/14 06:05:28;;;;;;;27.73;14.27;;;;;;;2.07;100.00;103139.59;5223064;28;20021;-69
2021/04/14 06:07:58;;;;;;;33.00;14.57;;;;;;;2.13;100.00;103142.03;5223714;28;20021;-69
2021/04/14 06:10:29;;;;;;;31.85;15.20;;;;;;;2.19;100.00;103138.28;5223709;28;20017;-69
2021/04/14 06:13:00;;;;;;;29.08;13.85;;;;;;;2.34;100.00;103143.88;5223237;28;20389;-69
2021/04/14 06:15:32;;;;;;;31.73;15.68;;;;;;;2.42;100.00;103134.81;5223585;28;20032;-69
2021/04/14 06:18:03;;;;;;;34.92;15.75;;;;;;;2.49;100.00;103142.44;5223712;28;20020;-69
2021/04/14 06:20:34;;;;;;;36.35;15.57;;;;;;;2.56;100.00;103140.41;5205055;28;20024;-70
2021/04/14 06:23:08;;;;;;;33.20;15.82;;;;;;;2.65;100.00;103137.41;5223237;28;20615;-69
2021/04/14 06:25:59;;;;;;;30.83;15.55;;;;;;;2.81;100.00;103137.69;5220414;28;20485;-69
2021/04/14 06:28:30;;;;;;;28.77;14.50;;;;;;;2.99;100.00;103141.41;5217268;28;20022;-70
2021/04/14 06:31:00;;;;;;;26.80;13.70;;;;;;;3.08;100.00;103146.34;5221909;28;20584;-69
2021/04/14 06:33:34;;;;;;;28.38;14.30;;;;;;;3.25;100.00;103145.66;5223097;28;20420;-70
2021/04/14 06:36:07;;;;;;;32.00;13.40;;;;;;;3.38;100.00;103137.13;5222772;28;20104;-69
2021/04/14 06:38:43;;;;;;;24.25;13.65;;;;;;;3.55;100.00;103140.88;5223542;28;20501;-69
2021/04/14 06:41:35;;;;;;;25.65;13.18;;;;;;;3.71;100.00;103146.38;5223180;28;20423;-69
2021/04/14 06:44:23;;;;;;;26.58;12.48;;;;;;;3.95;100.00;103144.47;5223195;28;20036;-69
2021/04/14 06:46:56;;;;;;;21.73;11.70;;;;;;;4.15;100.00;103147.09;5222890;28;20108;-69
2021/04/14 06:49:45;;;;;;;28.08;13.52;;;;;;;4.29;100.00;103149.13;5214041;28;20025;-70
2021/04/14 06:52:27;;;;;;;28.30;13.20;;;;;;;4.52;100.00;103143.66;5222994;28;20021;-70
2021/04/14 06:55:03;;;;;;;23.30;11.85;;;;;;;4.77;100.00;103146.03;5222299;28;20024;-69
2021/04/14 06:57:40;;;;;;;26.92;13.15;;;;;;;5.03;100.00;103135.94;5222959;28;20588;-69
2021/04/14 07:00:20;;;;;;;23.25;13.18;;;;;;;5.12;100.00;103133.69;5222194;28;20021;-73
2021/04/14 07:03:01;;;;;;;24.70;12.75;;;;;;;5.26;100.00;103132.97;5222771;28;20539;-70
2021/04/14 07:05:37;;;;;;;26.75;13.38;;;;;;;5.38;100.00;103136.84;5222666;28;20249;-69
2021/04/14 07:08:09;;;;;;;;;;;;;;;5.39;100.00;103139.44;5223277;28;20116;-69
2021/04/14 07:10:40;;;;;;;35.40;15.45;;;;;;;5.56;100.00;103135.91;5222322;28;20328;-70
2021/04/14 07:13:12;;;;;;;18.55;8.70;;;;;;;5.79;100.00;103136.53;5222775;28;20017;-70
2021/04/14 07:15:43;;;;;;;17.85;8.43;;;;;;;5.92;100.00;103130.53;5222066;28;20033;-70
2021/04/14 07:18:29;;;;;;;21.75;9.15;;;;;;;6.15;100.00;103128.44;5222733;28;20025;-70
2021/04/14 07:21:06;;;;;;;16.02;8.60;;;;;;;6.32;100.00;103131.06;5221481;28;20021;-69
2021/04/14 07:23:54;;;;;;;15.30;7.15;;;;;;;6.32;100.00;103140.84;5222338;28;20188;-69
2021/04/14 07:26:32;;;;;;;20.00;8.57;;;;;;;6.51;100.00;103138.06;5202526;28;20025;-69
2021/04/14 07:29:15;;;;;;;16.33;7.20;;;;;;;6.71;100.00;103137.81;5221815;28;20673;-70
2021/04/14 07:32:01;;;;;;;20.15;7.80;;;;;;;6.95;100.00;103136.44;5222537;28;20025;-69
2021/04/14 07:35:00;;;;;;;12.25;5.78;;;;;;;7.23;100.00;103129.53;5210205;28;20093;-69
2021/04/14 07:37:38;;;;;;;12.95;6.20;;;;;;;7.59;100.00;103133.69;5222170;28;20082;-69
2021/04/14 07:40:19;;;;;;;11.93;5.75;;;;;;;7.93;100.00;103140.50;5222071;28;20379;-69
2021/04/14 07:43:00;;;;;;;10.98;5.35;;;;;;;8.25;100.00;103139.41;5221495;28;20428;-70
2021/04/14 07:45:36;;;;;;;8.90;5.38;;;;;;;8.70;100.00;103132.13;5222278;28;20025;-69
2021/04/14 07:48:08;;;;;;;12.18;4.47;;;;;;;8.87;87.15;103139.06;5222048;28;20029;-69
2021/04/14 07:50:43;;;;;;;9.65;4.82;;;;;;;9.22;79.89;103130.53;5221750;28;20035;-69
2021/04/14 07:53:17;;;;;;;10.60;5.05;;;;;;;9.27;72.96;103128.41;5222125;28;20025;-69
2021/04/14 07:56:10;;;;;;;10.00;5.00;;;;;;;9.47;62.83;103135.97;5222523;28;20025;-69
2021/04/14 07:58:42;;;;;;;9.45;5.00;;;;;;;9.53;67.27;103140.91;5221974;28;20025;-69
2021/04/14 08:01:20;;;;;;;10.85;4.85;;;;;;;9.46;61.37;103136.94;5221194;28;20037;-70
2021/04/14 08:03:52;;;;;;;10.05;4.93;;;;;;;9.35;57.10;103134.13;5221962;28;20500;-69
2021/04/14 08:06:23;;;;;;;14.82;7.00;;;;;;;9.38;60.93;103133.91;5221946;28;20538;-69
2021/04/14 08:08:54;;;;;;;20.30;7.65;;;;;;;9.49;62.26;103135.91;5222190;28;20033;-69
2021/04/14 08:11:35;;;;;;;19.10;7.10;;;;;;;9.58;67.12;103135.25;5221231;28;20385;-69
2021/04/14 08:14:33;;;;;;;20.55;8.00;;;;;;;9.43;60.40;103133.59;5221836;28;20286;-70
2021/04/14 08:17:12;;;;;;;16.60;7.05;;;;;;;9.49;62.73;103133.22;5222028;28;20025;-70
2021/04/14 08:19:43;;;;;;;14.05;6.95;;;;;;;9.46;61.23;103134.25;5221511;28;20112;-72
2021/04/14 08:22:14;;;;;;;14.95;5.95;;;;;;;9.74;59.05;103129.69;5220915;28;20116;-72
2021/04/14 08:25:02;;;;;;;12.05;5.57;;;;;;;9.71;55.11;103136.13;5220478;28;20040;-72
2021/04/14 08:27:36;;;;;;;10.07;5.55;;;;;;;9.53;56.72;103135.56;5213828;28;20031;-72
2021/04/14 08:30:10;;;;;;;10.55;5.35;;;;;;;9.71;54.86;103141.50;5220231;28;20020;-72
2021/04/14 08:32:52;;;;;;;9.52;4.68;;;;;;;9.96;54.58;103139.81;5224764;28;20493;-72
2021/04/14 08:35:34;;;;;;;12.95;5.60;;;;;;;10.19;56.39;103140.88;5225580;28;20033;-72
2021/04/14 08:38:07;;;;;;;14.02;5.88;;;;;;;10.26;58.03;103143.06;5225405;28;20029;-72
2021/04/14 08:40:47;;;;;;;12.13;6.10;;;;;;;10.30;55.78;103143.72;5224736;28;20025;-75
2021/04/14 08:43:37;;;;;;;11.88;5.65;;;;;;;10.57;55.72;103146.25;5224581;28;20611;-71
2021/04/14 08:46:19;;;;;;;11.48;4.93;;;;;;;10.53;47.55;103137.53;5225523;28;20561;-72
2021/04/14 08:48:53;;;;;;;15.20;4.95;;;;;;;10.58;49.66;103143.44;5209190;28;20474;-71
2021/04/14 08:51:25;;;;;;;10.68;5.03;;;;;;;10.34;49.21;103140.72;5203336;28;20010;-71
2021/04/14 08:53:56;;;;;;;12.93;4.18;;;;;;;10.23;50.88;103140.53;5223536;28;20103;-71
2021/04/14 08:56:26;;;;;;;13.63;5.40;;;;;;;10.26;48.82;103137.69;5223575;28;20032;-71
2021/04/14 08:58:57;;;;;;;11.65;4.50;;;;;;;10.25;51.73;103141.34;5223575;28;20119;-71
2021/04/14 09:01:31;;;;;;;11.98;5.47;;;;;;;10.10;50.18;103137.03;5222882;28;20248;-71
2021/04/14 09:04:07;;;;;;;11.05;5.40;;;;;;;10.35;52.67;103141.56;5222664;28;20025;-71
2021/04/14 09:06:40;;;;;;;9.40;5.05;;;;;;;10.32;50.51;103133.72;5223718;28;20551;-71
2021/04/14 09:09:16;;;;;;;11.27;4.82;;;;;;;10.47;51.30;103131.78;5222872;28;20477;-71
2021/04/14 09:11:57;;;;;;;9.57;4.28;;;;;;;10.66;53.31;103134.00;5210336;28;20021;-71
2021/04/14 09:14:30;;;;;;;14.05;4.50;;;;;;;10.87;50.02;103137.78;5204584;28;20052;-71
2021/04/14 09:17:05;;;;;;;10.05;4.40;;;;;;;11.11;47.35;103135.13;5223186;28;20017;-72
2021/04/14 09:19:39;;;;;;;10.77;4.57;;;;;;;11.08;49.75;103128.13;5222719;28;20545;-71
2021/04/14 09:22:13;;;;;;;15.13;5.30;;;;;;;11.06;47.42;103132.78;5222412;28;20435;-72
2021/04/14 09:24:51;;;;;;;12.00;5.20;;;;;;;10.94;48.75;103132.81;5209380;28;20034;-72
2021/04/14 09:27:36;;;;;;;11.15;4.97;;;;;;;10.77;49.79;103128.69;5214886;28;20029;-72
2021/04/14 09:30:15;;;;;;;13.40;5.47;;;;;;;10.68;47.83;103132.91;5218242;28;20033;-71
2021/04/14 09:32:45;;;;;;;9.32;5.15;;;;;;;10.65;49.30;103125.09;5222255;28;20090;-69
2021/04/14 09:35:16;;;;;;;10.80;4.40;;;;;;;10.94;50.29;103128.28;5222229;28;20029;-70
2021/04/14 09:37:46;;;;;;;9.38;4.30;;;;;;;11.09;48.87;103126.31;5221837;28;20393;-71
2021/04/14 09:40:32;;;;;;;12.10;5.78;;;;;;;11.11;45.58;103121.69;5222513;28;20063;-67
2021/04/14 09:43:32;;;;;;;11.15;4.97;;;;;;;10.96;48.55;103112.09;5220887;28;20021;-68
2021/04/14 09:46:12;;;;;;;10.40;5.07;;;;;;;11.20;45.56;103118.31;5212041;28;20370;-68
2021/04/14 09:48:46;;;;;;;12.32;4.97;;;;;;;11.20;45.09;103121.00;5222116;28;20094;-68
2021/04/14 09:51:40;;;;;;;12.07;5.43;;;;;;;11.46;48.70;103115.50;5222251;28;20473;-68
2021/04/14 09:54:17;;;;;;;11.10;5.20;;;;;;;11.50;42.57;103116.97;5221693;28;20029;-68
2021/04/14 09:56:50;;;;;;;9.85;4.57;;;;;;;11.30;44.31;103113.13;5222426;28;20021;-67
2021/04/14 09:59:36;;;;;;;10.55;4.20;;;;;;;11.28;43.38;103107.84;5222412;28;20028;-67
2021/04/14 10:02:13;;;;;;;10.70;5.07;;;;;;;11.44;45.12;103094.09;5210005;28;20124;-67
2021/04/14 10:04:46;;;;;;;9.93;5.03;;;;;;;11.71;44.28;103106.41;5222155;28;20032;-67
2021/04/14 10:07:28;;;;;;;8.85;5.03;;;;;;;12.10;48.24;103105.16;5205073;28;20025;-67
2021/04/14 10:10:05;;;;;;;8.38;5.22;;;;;;;12.39;42.39;103102.81;5221726;28;20090;-68
2021/04/14 10:12:36;;;;;;;8.48;4.10;;;;;;;12.81;40.43;103092.22;5220865;28;20025;-67
2021/04/14 10:15:08;;;;;;;11.75;4.63;;;;;;;13.08;42.85;103091.78;5222313;28;20028;-68
2021/04/14 10:17:39;;;;;;;9.02;4.82;;;;;;;13.16;39.25;103094.69;5221789;28;20540;-67
2021/04/14 10:20:12;;;;;;;9.05;5.47;;;;;;;13.14;37.98;103085.88;5221888;28;20400;-68
2021/04/14 10:22:47;;;;;;;7.97;4.70;;;;;;;13.26;39.68;103084.88;5220128;28;20033;-68
2021/04/14 10:25:28;;;;;;;10.10;4.82;;;;;;;13.30;33.55;103074.66;5221188;28;20025;-67
2021/04/14 10:28:03;;;;;;;8.50;5.28;;;;;;;13.11;37.89;103078.91;5214546;28;20547;-67
2021/04/14 10:30:37;;;;;;;12.15;6.00;;;;;;;12.56;38.08;103077.22;5217225;28;20063;-68
2021/04/14 10:33:17;;;;;;;9.15;4.57;;;;;;;12.26;36.56;103077.88;5221414;28;20017;-68
2021/04/14 10:35:50;;;;;;;8.88;4.55;;;;;;;11.30;37.58;103068.28;5221072;28;20603;-67
2021/04/14 10:38:30;;;;;;;7.97;4.43;;;;;;;12.03;33.15;103063.56;5221592;28;20035;-68
2021/04/14 10:41:14;;;;;;;10.07;5.03;;;;;;;11.58;36.64;103072.38;5209332;28;20032;-68
2021/04/14 10:43:45;;;;;;;6.90;4.32;;;;;;;11.70;36.42;103062.53;5203460;28;20393;-68
2021/04/14 10:46:23;;;;;;;6.70;4.60;;;;;;;11.88;38.50;103068.31;5221667;28;20471;-68
2021/04/14 10:49:00;;;;;;;11.60;5.13;;;;;;;12.06;37.27;103058.78;5221038;28;20109;-68
2021/04/14 10:51:40;;;;;;;7.32;4.85;;;;;;;12.49;41.64;103060.69;5220774;28;20474;-69
2021/04/14 10:54:13;;;;;;;8.45;5.10;;;;;;;12.57;33.82;103052.84;5221548;28;20055;-68
2021/04/14 10:56:44;;;;;;;10.98;5.07;;;;;;;12.65;37.51;103053.09;5221032;28;20067;-68
2021/04/14 10:59:16;;;;;;;14.38;5.50;;;;;;;12.66;40.02;103049.41;5221049;28;20113;-67
2021/04/14 11:01:47;;;;;;;12.98;6.70;;;;;;;13.08;35.24;103054.03;5220468;28;20212;-68
2021/04/14 11:04:32;;;;;;;10.90;5.47;;;;;;;13.35;39.51;103054.41;5221533;28;20115;-68
2021/04/14 11:07:08;;;;;;;9.43;5.00;;;;;;;12.90;38.52;103049.22;5209377;28;20556;-70
2021/04/14 11:09:40;;;;;;;7.88;5.10;;;;;;;12.85;36.77;103043.38;5220727;28;20287;-72
2021/04/14 11:12:14;;;;;;;8.73;4.75;;;;;;;12.62;36.53;103045.25;5220783;28;20029;-70
2021/04/14 11:14:48;;;;;;;11.77;5.45;;;;;;;12.27;35.88;103055.34;5221187;28;20074;-69
2021/04/14 11:17:22;;;;;;;13.75;6.18;;;;;;;11.69;38.95;103050.03;5220156;28;20056;-69
2021/04/14 11:20:00;;;;;;;11.65;5.43;;;;;;;11.47;38.17;103050.84;5220811;28;20032;-69
2021/04/14 11:22:40;;;;;;;9.63;5.05;;;;;;;11.34;42.38;103050.06;5219368;28;20124;-69
2021/04/14 11:25:22;;;;;;;10.25;5.43;;;;;;;10.91;38.94;103045.28;5221307;28;20032;-69
2021/04/14 11:28:02;;;;;;;11.55;5.68;;;;;;;10.66;39.09;103046.25;5220243;28;20424;-70
2021/04/14 11:30:54;;;;;;;15.02;5.50;;;;;;;10.62;39.02;103047.44;5220756;28;20385;-70
2021/04/14 11:33:38;;;;;;;9.77;5.35;;;;;;;10.12;40.99;103044.75;5202828;28;20078;-70
2021/04/14 11:36:25;;;;;;;11.60;5.75;;;;;;;10.09;41.34;103049.47;5209161;28;20063;-70
2021/04/14 11:38:59;;;;;;;12.57;5.43;;;;;;;9.86;44.19;103048.44;5220654;28;20516;-70
2021/04/14 11:41:33;;;;;;;16.67;5.70;;;;;;;9.80;45.36;103048.88;5220510;28;20033;-69
2021/04/14 11:44:15;;;;;;;14.07;6.10;;;;;;;9.75;43.25;103048.34;5189661;28;20473;-69
2021/04/14 11:47:02;;;;;;;14.48;6.07;;;;;;;9.53;42.73;103041.75;5220784;28;20043;-70